sensor_id;sensor_type;location;lat;lon;timestamp;pressure;altitude;pressure_sealevel;temperature;humidity
75192;BME280;63771;52.580;9.734;2022-11-18T00:01:29;99622.41;;;4.81;90.36
75192;BME280;63771;52.580;9.734;2022-11-18T00:03:55;99632.16;;;4.87;90.13
75192;BME280;63771;52.580;9.734;2022-11-18T00:06:23;99633.78;;;4.86;90.25
75192;BME280;63771;52.580;9.734;2022-11-18T00:08:50;99627.84;;;4.86;89.85
75192;BME280;63771;52.580;9.734;2022-11-18T00:11:18;99629.88;;;4.90;89.68
75192;BME280;63771;52.580;9.734;2022-11-18T00:14:03;99635.63;;;4.79;90.27
75192;BME280;63771;52.580;9.734;2022-11-18T00:16:48;99648.50;;;4.71;90.75
75192;BME280;63771;52.580;9.734;2022-11-18T00:19:14;99638.41;;;4.71;90.86
75192;BME280;63771;52.580;9.734;2022-11-18T00:21:40;99643.50;;;4.82;89.92
75192;BME280;63771;52.580;9.734;2022-11-18T00:24:05;99650.19;;;4.81;89.79
75192;BME280;63771;52.580;9.734;2022-11-18T00:26:31;99647.25;;;4.77;90.03
75192;BME280;63771;52.580;9.734;2022-11-18T00:28:56;99645.69;;;4.68;90.54
75192;BME280;63771;52.580;9.734;2022-11-18T00:31:21;99642.22;;;4.77;90.40
75192;BME280;63771;52.580;9.734;2022-11-18T00:33:46;99650.00;;;4.69;90.39
75192;BME280;63771;52.580;9.734;2022-11-18T00:36:12;99638.59;;;4.64;90.33
75192;BME280;63771;52.580;9.734;2022-11-18T00:38:38;99656.56;;;4.67;90.49
75192;BME280;63771;52.580;9.734;2022-11-18T00:41:06;99663.53;;;4.70;90.19
75192;BME280;63771;52.580;9.734;2022-11-18T00:43:32;99670.56;;;4.64;90.44
75192;BME280;63771;52.580;9.734;2022-11-18T00:45:58;99664.13;;;4.67;90.41
75192;BME280;63771;52.580;9.734;2022-11-18T00:48:24;99660.44;;;4.64;89.93
75192;BME280;63771;52.580;9.734;2022-11-18T00:50:50;99669.66;;;4.63;90.27
75192;BME280;63771;52.580;9.734;2022-11-18T00:53:17;99675.88;;;4.67;90.46
75192;BME280;63771;52.580;9.734;2022-11-18T00:55:43;99677.88;;;4.61;90.25
75192;BME280;63771;52.580;9.734;2022-11-18T00:58:09;99672.66;;;4.59;90.46
75192;BME280;63771;52.580;9.734;2022-11-18T01:00:41;99680.13;;;4.58;90.63
75192;BME280;63771;52.580;9.734;2022-11-18T01:03:08;99682.06;;;4.60;90.38
75192;BME280;63771;52.580;9.734;2022-11-18T01:05:33;99680.88;;;4.57;90.23
75192;BME280;63771;52.580;9.734;2022-11-18T01:07:59;99684.28;;;4.57;90.30
75192;BME280;63771;52.580;9.734;2022-11-18T01:10:24;99680.41;;;4.61;90.34
75192;BME280;63771;52.580;9.734;2022-11-18T01:12:49;99688.75;;;4.60;89.87
75192;BME280;63771;52.580;9.734;2022-11-18T01:15:38;99684.56;;;4.60;90.23
75192;BME280;63771;52.580;9.734;2022-11-18T01:18:04;99682.53;;;4.56;90.35
75192;BME280;63771;52.580;9.734;2022-11-18T01:20:31;99679.72;;;4.53;90.26
75192;BME280;63771;52.580;9.734;2022-11-18T01:22:56;99676.16;;;4.70;89.51
75192;BME280;63771;52.580;9.734;2022-11-18T01:25:22;99682.00;;;4.79;88.51
75192;BME280;63771;52.580;9.734;2022-11-18T01:27:47;99684.81;;;4.63;89.24
75192;BME280;63771;52.580;9.734;2022-11-18T01:30:13;99692.63;;;4.56;89.94
75192;BME280;63771;52.580;9.734;2022-11-18T01:32:41;99679.25;;;4.57;89.74
75192;BME280;63771;52.580;9.734;2022-11-18T01:35:06;99697.22;;;4.60;89.38
75192;BME280;63771;52.580;9.734;2022-11-18T01:37:31;99688.94;;;4.53;89.80
75192;BME280;63771;52.580;9.734;2022-11-18T01:39:57;99693.56;;;4.48;90.22
75192;BME280;63771;52.580;9.734;2022-11-18T01:42:22;99706.69;;;4.44;90.37
75192;BME280;63771;52.580;9.734;2022-11-18T01:45:37;99709.94;;;4.43;90.65
75192;BME280;63771;52.580;9.734;2022-11-18T01:47:44;99700.06;;;4.36;90.98
75192;BME280;63771;52.580;9.734;2022-11-18T01:50:14;99716.81;;;4.44;90.83
75192;BME280;63771;52.580;9.734;2022-11-18T01:52:40;99711.75;;;4.44;90.68
75192;BME280;63771;52.580;9.734;2022-11-18T01:55:15;99712.28;;;4.50;90.07
75192;BME280;63771;52.580;9.734;2022-11-18T01:57:42;99709.06;;;4.42;90.38
75192;BME280;63771;52.580;9.734;2022-11-18T02:00:11;99716.38;;;4.39;90.82
75192;BME280;63771;52.580;9.734;2022-11-18T02:02:37;99715.97;;;4.54;89.91
75192;BME280;63771;52.580;9.734;2022-11-18T02:05:04;99717.47;;;4.52;89.25
75192;BME280;63771;52.580;9.734;2022-11-18T02:07:33;99720.63;;;4.49;90.09
75192;BME280;63771;52.580;9.734;2022-11-18T02:10:01;99725.88;;;4.42;90.24
75192;BME280;63771;52.580;9.734;2022-11-18T02:12:28;99717.94;;;4.48;90.13
75192;BME280;63771;52.580;9.734;2022-11-18T02:14:53;99721.97;;;4.45;89.70
75192;BME280;63771;52.580;9.734;2022-11-18T02:17:43;99713.53;;;4.45;89.94
75192;BME280;63771;52.580;9.734;2022-11-18T02:20:23;99725.88;;;4.42;89.93
75192;BME280;63771;52.580;9.734;2022-11-18T02:34:51;99741.75;;;4.41;90.09
75192;BME280;63771;52.580;9.734;2022-11-18T02:37:44;99751.56;;;4.38;90.09
75192;BME280;63771;52.580;9.734;2022-11-18T02:42:53;99749.25;;;4.31;90.63
75192;BME280;63771;52.580;9.734;2022-11-18T02:45:21;99758.13;;;4.36;90.43
75192;BME280;63771;52.580;9.734;2022-11-18T02:47:49;99745.59;;;4.46;89.44
75192;BME280;63771;52.580;9.734;2022-11-18T02:50:20;99748.88;;;4.45;89.67
75192;BME280;63771;52.580;9.734;2022-11-18T02:52:52;99737.72;;;4.43;89.55
75192;BME280;63771;52.580;9.734;2022-11-18T02:55:19;99744.28;;;4.41;89.76
75192;BME280;63771;52.580;9.734;2022-11-18T02:57:46;99747.09;;;4.44;89.52
75192;BME280;63771;52.580;9.734;2022-11-18T03:00:12;99751.88;;;4.41;89.53
75192;BME280;63771;52.580;9.734;2022-11-18T03:02:42;99752.53;;;4.49;89.60
75192;BME280;63771;52.580;9.734;2022-11-18T03:05:15;99753.16;;;4.46;89.33
75192;BME280;63771;52.580;9.734;2022-11-18T03:07:45;99759.16;;;4.38;89.32
75192;BME280;63771;52.580;9.734;2022-11-18T03:10:13;99767.34;;;4.35;89.63
75192;BME280;63771;52.580;9.734;2022-11-18T03:13:05;99751.03;;;4.32;89.64
75192;BME280;63771;52.580;9.734;2022-11-18T03:15:51;99764.06;;;4.36;89.61
75192;BME280;63771;52.580;9.734;2022-11-18T03:21:14;99762.09;;;4.42;88.53
75192;BME280;63771;52.580;9.734;2022-11-18T03:23:54;99753.56;;;4.32;89.15
75192;BME280;63771;52.580;9.734;2022-11-18T03:26:31;99765.34;;;4.23;89.61
75192;BME280;63771;52.580;9.734;2022-11-18T03:29:04;99766.25;;;4.23;89.55
75192;BME280;63771;52.580;9.734;2022-11-18T03:32:14;99774.56;;;4.22;89.87
75192;BME280;63771;52.580;9.734;2022-11-18T03:34:45;99771.78;;;4.19;90.10
75192;BME280;63771;52.580;9.734;2022-11-18T03:37:13;99768.78;;;4.23;89.92
75192;BME280;63771;52.580;9.734;2022-11-18T03:39:45;99787.78;;;4.19;89.85
75192;BME280;63771;52.580;9.734;2022-11-18T03:42:17;99796.53;;;4.23;89.64
75192;BME280;63771;52.580;9.734;2022-11-18T03:44:51;99790.03;;;4.16;89.90
75192;BME280;63771;52.580;9.734;2022-11-18T03:47:23;99793.88;;;4.22;89.85
75192;BME280;63771;52.580;9.734;2022-11-18T03:49:59;99795.06;;;4.16;89.51
75192;BME280;63771;52.580;9.734;2022-11-18T03:52:31;99796.16;;;4.10;90.29
75192;BME280;63771;52.580;9.734;2022-11-18T03:55:03;99810.13;;;4.06;90.65
75192;BME280;63771;52.580;9.734;2022-11-18T03:58:02;99809.66;;;4.10;90.43
75192;BME280;63771;52.580;9.734;2022-11-18T04:00:33;99811.16;;;4.08;90.33
75192;BME280;63771;52.580;9.734;2022-11-18T04:03:02;99807.78;;;4.27;89.17
75192;BME280;63771;52.580;9.734;2022-11-18T04:05:31;99808.13;;;4.21;88.93
75192;BME280;63771;52.580;9.734;2022-11-18T04:08:00;99810.50;;;4.19;89.25
75192;BME280;63771;52.580;9.734;2022-11-18T04:10:32;99811.72;;;4.14;89.24
75192;BME280;63771;52.580;9.734;2022-11-18T04:13:05;99817.56;;;4.05;89.84
75192;BME280;63771;52.580;9.734;2022-11-18T04:15:32;99823.22;;;4.02;89.86
75192;BME280;63771;52.580;9.734;2022-11-18T04:18:00;99828.41;;;4.04;89.76
75192;BME280;63771;52.580;9.734;2022-11-18T04:20:25;99828.31;;;3.93;89.99
75192;BME280;63771;52.580;9.734;2022-11-18T04:22:51;99828.66;;;4.07;89.13
75192;BME280;63771;52.580;9.734;2022-11-18T04:25:16;99840.91;;;3.93;89.39
75192;BME280;63771;52.580;9.734;2022-11-18T04:27:42;99829.97;;;3.84;90.13
75192;BME280;63771;52.580;9.734;2022-11-18T04:30:07;99838.97;;;3.91;89.88
75192;BME280;63771;52.580;9.734;2022-11-18T04:32:33;99840.06;;;3.84;90.01
75192;BME280;63771;52.580;9.734;2022-11-18T04:34:59;99842.72;;;3.86;89.88
75192;BME280;63771;52.580;9.734;2022-11-18T04:37:24;99841.81;;;3.85;90.04
75192;BME280;63771;52.580;9.734;2022-11-18T04:39:50;99853.41;;;3.83;90.02
75192;BME280;63771;52.580;9.734;2022-11-18T04:42:15;99854.00;;;3.81;89.84
75192;BME280;63771;52.580;9.734;2022-11-18T04:44:40;99841.69;;;3.84;89.37
75192;BME280;63771;52.580;9.734;2022-11-18T04:47:06;99842.09;;;3.97;88.48
75192;BME280;63771;52.580;9.734;2022-11-18T04:49:32;99852.41;;;3.81;88.87
75192;BME280;63771;52.580;9.734;2022-11-18T04:51:58;99851.97;;;3.77;89.05
75192;BME280;63771;52.580;9.734;2022-11-18T04:54:24;99859.09;;;3.72;89.13
75192;BME280;63771;52.580;9.734;2022-11-18T04:56:49;99868.56;;;3.75;89.57
75192;BME280;63771;52.580;9.734;2022-11-18T04:59:18;99867.66;;;3.83;88.37
75192;BME280;63771;52.580;9.734;2022-11-18T05:01:44;99868.88;;;3.78;88.66
75192;BME280;63771;52.580;9.734;2022-11-18T05:04:15;99874.22;;;3.72;89.08
75192;BME280;63771;52.580;9.734;2022-11-18T05:06:41;99881.94;;;3.65;89.45
75192;BME280;63771;52.580;9.734;2022-11-18T05:09:07;99884.00;;;3.69;89.21
75192;BME280;63771;52.580;9.734;2022-11-18T05:11:32;99886.66;;;3.71;89.05
75192;BME280;63771;52.580;9.734;2022-11-18T05:14:16;99884.00;;;3.69;88.72
75192;BME280;63771;52.580;9.734;2022-11-18T05:16:41;99890.41;;;3.65;89.16
75192;BME280;63771;52.580;9.734;2022-11-18T05:19:07;99884.91;;;3.70;89.01
75192;BME280;63771;52.580;9.734;2022-11-18T05:21:32;99892.78;;;3.73;89.03
75192;BME280;63771;52.580;9.734;2022-11-18T05:23:58;99888.72;;;3.83;88.03
75192;BME280;63771;52.580;9.734;2022-11-18T05:26:24;99886.66;;;3.71;88.21
75192;BME280;63771;52.580;9.734;2022-11-18T05:28:50;99895.47;;;3.65;88.83
75192;BME280;63771;52.580;9.734;2022-11-18T05:31:16;99893.06;;;3.58;89.20
75192;BME280;63771;52.580;9.734;2022-11-18T05:33:42;99899.19;;;3.60;89.09
75192;BME280;63771;52.580;9.734;2022-11-18T05:36:13;99900.34;;;3.64;88.85
75192;BME280;63771;52.580;9.734;2022-11-18T05:38:39;99904.50;;;3.63;88.63
75192;BME280;63771;52.580;9.734;2022-11-18T05:41:05;99914.88;;;3.58;88.88
75192;BME280;63771;52.580;9.734;2022-11-18T05:43:31;99912.81;;;3.62;88.50
75192;BME280;63771;52.580;9.734;2022-11-18T05:45:57;99921.44;;;3.56;88.79
75192;BME280;63771;52.580;9.734;2022-11-18T05:48:23;99921.13;;;3.61;88.86
75192;BME280;63771;52.580;9.734;2022-11-18T05:50:50;99921.88;;;3.52;88.82
75192;BME280;63771;52.580;9.734;2022-11-18T05:53:17;99922.00;;;3.53;88.66
75192;BME280;63771;52.580;9.734;2022-11-18T05:55:50;99931.19;;;3.44;89.03
75192;BME280;63771;52.580;9.734;2022-11-18T05:58:18;99933.59;;;3.51;88.83
75192;BME280;63771;52.580;9.734;2022-11-18T06:00:45;99924.41;;;3.52;88.01
75192;BME280;63771;52.580;9.734;2022-11-18T06:03:18;99927.97;;;3.45;88.76
75192;BME280;63771;52.580;9.734;2022-11-18T06:05:44;99942.47;;;3.39;89.30
75192;BME280;63771;52.580;9.734;2022-11-18T06:08:10;99941.56;;;3.64;86.84
75192;BME280;63771;52.580;9.734;2022-11-18T06:10:36;99947.66;;;3.49;87.51
75192;BME280;63771;52.580;9.734;2022-11-18T06:13:06;99942.66;;;3.40;88.54
75192;BME280;63771;52.580;9.734;2022-11-18T06:15:36;99947.97;;;3.35;89.05
75192;BME280;63771;52.580;9.734;2022-11-18T06:18:11;99944.13;;;3.30;88.80
75192;BME280;63771;52.580;9.734;2022-11-18T06:20:41;99946.34;;;3.35;88.63
75192;BME280;63771;52.580;9.734;2022-11-18T06:23:06;99951.66;;;3.38;88.74
75192;BME280;63771;52.580;9.734;2022-11-18T06:25:32;99947.66;;;3.49;87.65
75192;BME280;63771;52.580;9.734;2022-11-18T06:27:59;99945.44;;;3.44;88.03
75192;BME280;63771;52.580;9.734;2022-11-18T06:30:26;99955.69;;;3.36;88.15
75192;BME280;63771;52.580;9.734;2022-11-18T06:32:51;99963.53;;;3.31;88.71
75192;BME280;63771;52.580;9.734;2022-11-18T06:35:17;99966.81;;;3.30;89.18
75192;BME280;63771;52.580;9.734;2022-11-18T06:37:42;99973.31;;;3.28;89.38
75192;BME280;63771;52.580;9.734;2022-11-18T06:40:08;99973.31;;;3.28;89.35
75192;BME280;63771;52.580;9.734;2022-11-18T06:42:34;99972.28;;;3.26;89.24
75192;BME280;63771;52.580;9.734;2022-11-18T06:45:17;99971.53;;;3.27;89.47
75192;BME280;63771;52.580;9.734;2022-11-18T06:47:43;99976.16;;;3.31;89.00
75192;BME280;63771;52.580;9.734;2022-11-18T06:50:08;99975.09;;;3.29;89.38
75192;BME280;63771;52.580;9.734;2022-11-18T06:52:34;99980.31;;;3.48;88.54
75192;BME280;63771;52.580;9.734;2022-11-18T06:54:59;99986.09;;;3.55;88.90
75192;BME280;63771;52.580;9.734;2022-11-18T06:57:24;99986.66;;;3.70;87.04
75192;BME280;63771;52.580;9.734;2022-11-18T06:59:50;99998.56;;;3.62;87.31
75192;BME280;63771;52.580;9.734;2022-11-18T07:02:15;99995.88;;;3.52;87.90
75192;BME280;63771;52.580;9.734;2022-11-18T07:04:43;99996.03;;;3.54;87.39
75192;BME280;63771;52.580;9.734;2022-11-18T07:07:08;99998.56;;;3.45;87.89
75192;BME280;63771;52.580;9.734;2022-11-18T07:09:34;100008.19;;;3.40;88.44
75192;BME280;63771;52.580;9.734;2022-11-18T07:12:00;100000.16;;;3.36;88.23
75192;BME280;63771;52.580;9.734;2022-11-18T07:14:25;100006.41;;;3.31;88.59
75192;BME280;63771;52.580;9.734;2022-11-18T07:16:51;100017.81;;;3.36;88.24
75192;BME280;63771;52.580;9.734;2022-11-18T07:19:16;100016.34;;;3.47;87.12
75192;BME280;63771;52.580;9.734;2022-11-18T07:21:42;100028.94;;;3.29;87.89
75192;BME280;63771;52.580;9.734;2022-11-18T07:24:10;100029.50;;;3.27;87.86
75192;BME280;63771;52.580;9.734;2022-11-18T07:26:35;100035.72;;;3.22;88.53
75192;BME280;63771;52.580;9.734;2022-11-18T07:29:01;100033.97;;;3.29;87.76
75192;BME280;63771;52.580;9.734;2022-11-18T07:31:26;100042.44;;;3.30;87.73
75192;BME280;63771;52.580;9.734;2022-11-18T07:33:52;100048.50;;;3.32;86.71
75192;BME280;63771;52.580;9.734;2022-11-18T07:36:25;100057.84;;;3.24;87.53
75192;BME280;63771;52.580;9.734;2022-11-18T07:38:51;100063.75;;;3.25;87.36
75192;BME280;63771;52.580;9.734;2022-11-18T07:41:22;100065.50;;;3.17;87.18
75192;BME280;63771;52.580;9.734;2022-11-18T07:43:48;100065.38;;;3.16;87.21
75192;BME280;63771;52.580;9.734;2022-11-18T07:46:23;100069.19;;;3.12;87.20
75192;BME280;63771;52.580;9.734;2022-11-18T07:48:50;100071.72;;;3.03;87.82
75192;BME280;63771;52.580;9.734;2022-11-18T07:51:18;100080.44;;;2.98;87.94
75192;BME280;63771;52.580;9.734;2022-11-18T07:53:45;100084.13;;;2.93;88.14
75192;BME280;63771;52.580;9.734;2022-11-18T07:56:12;100084.94;;;2.85;88.67
75192;BME280;63771;52.580;9.734;2022-11-18T07:58:38;100092.69;;;2.95;87.98
75192;BME280;63771;52.580;9.734;2022-11-18T08:01:08;100093.16;;;3.00;87.58
75192;BME280;63771;52.580;9.734;2022-11-18T08:03:34;100097.63;;;3.02;87.30
75192;BME280;63771;52.580;9.734;2022-11-18T08:06:00;100097.59;;;2.94;87.78
75192;BME280;63771;52.580;9.734;2022-11-18T08:08:25;100102.03;;;2.96;87.50
75192;BME280;63771;52.580;9.734;2022-11-18T08:10:54;100102.94;;;2.97;87.50
75192;BME280;63771;52.580;9.734;2022-11-18T08:13:20;100101.56;;;2.83;87.53
75192;BME280;63771;52.580;9.734;2022-11-18T08:15:45;100106.88;;;2.86;87.63
75192;BME280;63771;52.580;9.734;2022-11-18T08:18:10;100110.47;;;2.88;87.68
75192;BME280;63771;52.580;9.734;2022-11-18T08:20:36;100110.56;;;2.81;87.77
75192;BME280;63771;52.580;9.734;2022-11-18T08:23:01;100121.09;;;2.85;87.66
75192;BME280;63771;52.580;9.734;2022-11-18T08:25:26;100120.22;;;2.85;87.25
75192;BME280;63771;52.580;9.734;2022-11-18T08:27:52;100117.22;;;2.80;88.18
75192;BME280;63771;52.580;9.734;2022-11-18T08:30:17;100120.84;;;2.91;86.95
75192;BME280;63771;52.580;9.734;2022-11-18T08:32:43;100126.00;;;2.84;87.07
75192;BME280;63771;52.580;9.734;2022-11-18T08:35:08;100131.44;;;2.80;87.08
75192;BME280;63771;52.580;9.734;2022-11-18T08:37:34;100126.72;;;2.83;86.15
75192;BME280;63771;52.580;9.734;2022-11-18T08:39:59;100132.59;;;2.75;86.27
75192;BME280;63771;52.580;9.734;2022-11-18T08:42:24;100138.91;;;2.63;86.94
75192;BME280;63771;52.580;9.734;2022-11-18T08:44:50;100142.56;;;2.57;87.41
75192;BME280;63771;52.580;9.734;2022-11-18T08:47:15;100144.84;;;2.63;87.46
75192;BME280;63771;52.580;9.734;2022-11-18T08:49:41;100147.91;;;2.60;87.14
75192;BME280;63771;52.580;9.734;2022-11-18T08:52:07;100153.88;;;2.61;87.12
75192;BME280;63771;52.580;9.734;2022-11-18T08:54:32;100161.56;;;2.63;86.35
75192;BME280;63771;52.580;9.734;2022-11-18T08:56:58;100160.06;;;2.56;87.00
75192;BME280;63771;52.580;9.734;2022-11-18T08:59:23;100167.50;;;2.63;85.94
75192;BME280;63771;52.580;9.734;2022-11-18T09:01:48;100162.56;;;2.56;86.74
75192;BME280;63771;52.580;9.734;2022-11-18T09:04:14;100163.19;;;2.62;85.33
75192;BME280;63771;52.580;9.734;2022-11-18T09:06:39;100153.16;;;2.46;86.54
75192;BME280;63771;52.580;9.734;2022-11-18T09:09:06;100171.50;;;2.45;86.24
75192;BME280;63771;52.580;9.734;2022-11-18T09:11:32;100163.66;;;2.42;87.22
75192;BME280;63771;52.580;9.734;2022-11-18T09:13:58;100165.50;;;2.52;86.22
75192;BME280;63771;52.580;9.734;2022-11-18T09:16:25;100177.59;;;2.47;85.97
75192;BME280;63771;52.580;9.734;2022-11-18T09:18:52;100177.13;;;2.43;86.26
75192;BME280;63771;52.580;9.734;2022-11-18T09:21:18;100174.13;;;2.38;86.80
75192;BME280;63771;52.580;9.734;2022-11-18T09:23:43;100174.38;;;2.32;87.06
75192;BME280;63771;52.580;9.734;2022-11-18T09:26:11;100176.34;;;2.35;86.86
75192;BME280;63771;52.580;9.734;2022-11-18T09:28:37;100175.38;;;2.50;86.30
75192;BME280;63771;52.580;9.734;2022-11-18T09:31:04;100181.56;;;2.45;86.28
75192;BME280;63771;52.580;9.734;2022-11-18T09:33:29;100181.41;;;2.44;86.03
75192;BME280;63771;52.580;9.734;2022-11-18T09:35:55;100191.72;;;2.38;85.84
75192;BME280;63771;52.580;9.734;2022-11-18T09:38:20;100200.13;;;2.30;86.93
75192;BME280;63771;52.580;9.734;2022-11-18T09:44:04;100211.97;;;2.31;86.33
75192;BME280;63771;52.580;9.734;2022-11-18T09:49:39;100216.03;;;2.22;86.49
75192;BME280;63771;52.580;9.734;2022-11-18T09:52:11;100222.44;;;2.27;86.20
75192;BME280;63771;52.580;9.734;2022-11-18T09:54:40;100230.47;;;2.31;85.79
75192;BME280;63771;52.580;9.734;2022-11-18T09:57:15;100228.22;;;2.26;86.32
75192;BME280;63771;52.580;9.734;2022-11-18T09:59:42;100242.22;;;2.24;85.83
75192;BME280;63771;52.580;9.734;2022-11-18T10:02:40;100240.59;;;2.24;86.22
75192;BME280;63771;52.580;9.734;2022-11-18T10:05:17;100246.06;;;2.20;86.32
75192;BME280;63771;52.580;9.734;2022-11-18T10:13:17;100249.97;;;2.25;85.08
75192;BME280;63771;52.580;9.734;2022-11-18T10:15:54;100254.81;;;2.24;85.66
75192;BME280;63771;52.580;9.734;2022-11-18T10:18:27;100256.28;;;2.22;85.57
75192;BME280;63771;52.580;9.734;2022-11-18T10:21:22;100258.66;;;2.20;86.00
75192;BME280;63771;52.580;9.734;2022-11-18T10:24:11;100265.13;;;2.18;86.53
75192;BME280;63771;52.580;9.734;2022-11-18T10:26:40;100259.84;;;2.24;86.04
75192;BME280;63771;52.580;9.734;2022-11-18T10:29:06;100271.03;;;2.19;86.00
75192;BME280;63771;52.580;9.734;2022-11-18T10:31:38;100273.00;;;2.37;85.07
75192;BME280;63771;52.580;9.734;2022-11-18T10:34:05;100278.13;;;2.30;85.78
75192;BME280;63771;52.580;9.734;2022-11-18T10:36:34;100285.00;;;2.24;86.13
75192;BME280;63771;52.580;9.734;2022-11-18T10:39:07;100284.84;;;2.38;84.28
75192;BME280;63771;52.580;9.734;2022-11-18T10:41:39;100290.38;;;2.27;84.75
75192;BME280;63771;52.580;9.734;2022-11-18T10:44:31;100296.38;;;2.20;85.10
75192;BME280;63771;52.580;9.734;2022-11-18T10:49:40;100297.56;;;2.08;85.79
75192;BME280;63771;52.580;9.734;2022-11-18T10:52:10;100305.06;;;2.15;85.21
75192;BME280;63771;52.580;9.734;2022-11-18T10:54:37;100303.84;;;2.12;84.58
75192;BME280;63771;52.580;9.734;2022-11-18T10:57:23;100313.25;;;2.05;85.35
75192;BME280;63771;52.580;9.734;2022-11-18T10:59:51;100316.81;;;2.07;84.67
75192;BME280;63771;52.580;9.734;2022-11-18T11:04:48;100303.28;;;1.91;85.79
75192;BME280;63771;52.580;9.734;2022-11-18T11:07:24;100316.16;;;2.01;86.12
75192;BME280;63771;52.580;9.734;2022-11-18T11:12:32;100308.97;;;2.20;83.97
75192;BME280;63771;52.580;9.734;2022-11-18T11:15:10;100310.22;;;2.01;85.18
75192;BME280;63771;52.580;9.734;2022-11-18T11:17:44;100314.69;;;2.03;84.45
75192;BME280;63771;52.580;9.734;2022-11-18T11:20:33;100318.00;;;1.95;85.19
75192;BME280;63771;52.580;9.734;2022-11-18T11:22:59;100327.31;;;1.96;85.10
75192;BME280;63771;52.580;9.734;2022-11-18T11:25:56;100322.28;;;1.96;85.35
75192;BME280;63771;52.580;9.734;2022-11-18T11:31:10;100320.41;;;2.09;83.81
75192;BME280;63771;52.580;9.734;2022-11-18T11:33:51;100331.47;;;1.96;85.23
75192;BME280;63771;52.580;9.734;2022-11-18T11:38:53;100316.22;;;1.94;85.07
75192;BME280;63771;52.580;9.734;2022-11-18T11:41:36;100333.53;;;2.07;83.73
75192;BME280;63771;52.580;9.734;2022-11-18T11:44:25;100336.28;;;2.01;84.82
75192;BME280;63771;52.580;9.734;2022-11-18T11:50:00;100346.25;;;2.08;84.36
75192;BME280;63771;52.580;9.734;2022-11-18T11:58:45;100359.38;;;2.29;82.46
75192;BME280;63771;52.580;9.734;2022-11-18T12:01:25;100368.47;;;2.20;83.17
75192;BME280;63771;52.580;9.734;2022-11-18T12:03:59;100367.06;;;2.15;82.97
75192;BME280;63771;52.580;9.734;2022-11-18T12:06:27;100362.09;;;2.07;83.40
75192;BME280;63771;52.580;9.734;2022-11-18T12:11:33;100367.03;;;1.99;84.27
75192;BME280;63771;52.580;9.734;2022-11-18T12:14:11;100366.06;;;2.05;83.91
75192;BME280;63771;52.580;9.734;2022-11-18T12:17:01;100366.09;;;1.98;84.00
75192;BME280;63771;52.580;9.734;2022-11-18T12:19:30;100366.44;;;2.01;84.07
75192;BME280;63771;52.580;9.734;2022-11-18T12:22:00;100368.16;;;1.94;84.41
75192;BME280;63771;52.580;9.734;2022-11-18T12:24:38;100362.69;;;1.98;83.81
75192;BME280;63771;52.580;9.734;2022-11-18T12:29:54;100370.81;;;1.95;83.59
75192;BME280;63771;52.580;9.734;2022-11-18T12:32:30;100366.69;;;1.96;82.80
75192;BME280;63771;52.580;9.734;2022-11-18T12:35:02;100380.09;;;1.80;84.49
75192;BME280;63771;52.580;9.734;2022-11-18T12:37:39;100382.44;;;1.79;84.57
75192;BME280;63771;52.580;9.734;2022-11-18T12:40:06;100381.50;;;1.86;83.83
75192;BME280;63771;52.580;9.734;2022-11-18T12:42:43;100383.56;;;1.97;83.23
75192;BME280;63771;52.580;9.734;2022-11-18T12:50:50;100386.59;;;1.78;84.93
75192;BME280;63771;52.580;9.734;2022-11-18T12:53:35;100398.34;;;1.94;83.50
75192;BME280;63771;52.580;9.734;2022-11-18T12:58:46;100403.59;;;1.88;84.28
75192;BME280;63771;52.580;9.734;2022-11-18T13:01:14;100412.19;;;1.90;83.59
75192;BME280;63771;52.580;9.734;2022-11-18T13:03:40;100409.00;;;1.84;84.05
75192;BME280;63771;52.580;9.734;2022-11-18T13:06:14;100409.22;;;1.78;84.46
75192;BME280;63771;52.580;9.734;2022-11-18T13:08:43;100418.09;;;1.91;83.45
75192;BME280;63771;52.580;9.734;2022-11-18T13:11:15;100411.28;;;1.90;83.83
75192;BME280;63771;52.580;9.734;2022-11-18T13:14:00;100419.00;;;1.91;82.54
75192;BME280;63771;52.580;9.734;2022-11-18T13:16:45;100412.63;;;1.79;83.95
75192;BME280;63771;52.580;9.734;2022-11-18T13:19:30;100416.84;;;1.87;82.95
75192;BME280;63771;52.580;9.734;2022-11-18T13:21:58;100424.38;;;1.94;81.64
75192;BME280;63771;52.580;9.734;2022-11-18T13:24:44;100423.94;;;1.75;82.92
75192;BME280;63771;52.580;9.734;2022-11-18T13:27:21;100432.44;;;1.69;83.17
75192;BME280;63771;52.580;9.734;2022-11-18T13:30:12;100445.00;;;1.69;81.99
75192;BME280;63771;52.580;9.734;2022-11-18T13:32:43;100440.72;;;1.68;81.74
75192;BME280;63771;52.580;9.734;2022-11-18T13:35:13;100442.50;;;1.62;82.82
75192;BME280;63771;52.580;9.734;2022-11-18T13:38:16;100452.38;;;1.67;81.70
75192;BME280;63771;52.580;9.734;2022-11-18T13:40:45;100448.41;;;1.69;81.08
75192;BME280;63771;52.580;9.734;2022-11-18T13:43:28;100452.41;;;1.60;82.08
75192;BME280;63771;52.580;9.734;2022-11-18T13:45:54;100448.56;;;1.71;81.03
75192;BME280;63771;52.580;9.734;2022-11-18T13:48:20;100455.81;;;1.61;81.10
75192;BME280;63771;52.580;9.734;2022-11-18T13:50:47;100466.59;;;1.60;81.35
75192;BME280;63771;52.580;9.734;2022-11-18T13:53:29;100465.50;;;1.65;81.35
75192;BME280;63771;52.580;9.734;2022-11-18T13:56:00;100461.94;;;1.55;81.82
75192;BME280;63771;52.580;9.734;2022-11-18T14:01:32;100460.31;;;1.56;81.71
75192;BME280;63771;52.580;9.734;2022-11-18T14:04:06;100457.13;;;1.57;81.53
75192;BME280;63771;52.580;9.734;2022-11-18T14:06:38;100462.44;;;1.67;81.10
75192;BME280;63771;52.580;9.734;2022-11-18T14:09:23;100475.72;;;1.66;79.63
75192;BME280;63771;52.580;9.734;2022-11-18T14:12:20;100478.31;;;1.45;81.49
75192;BME280;63771;52.580;9.734;2022-11-18T14:14:46;100475.84;;;1.38;82.60
75192;BME280;63771;52.580;9.734;2022-11-18T14:17:19;100488.75;;;1.41;81.26
75192;BME280;63771;52.580;9.734;2022-11-18T14:19:47;100485.69;;;1.43;81.34
75192;BME280;63771;52.580;9.734;2022-11-18T14:22:23;100498.22;;;1.50;80.59
75192;BME280;63771;52.580;9.734;2022-11-18T14:24:54;100489.78;;;1.50;80.77
75192;BME280;63771;52.580;9.734;2022-11-18T14:33:21;100502.25;;;1.41;79.53
75192;BME280;63771;52.580;9.734;2022-11-18T14:38:35;100495.41;;;1.40;79.65